Time;durP1;ratioP1;P1;durP2;ratioP2;P2;SDS_P1;SDS_P2;PMS_P1;PMS_P2;Temp;Humidity;BMP_temperature;BMP_pressure;BME280_temperature;BME280_humidity;BME280_pressure;Samples;Min_cycle;Max_cycle;Signal;HPM_P1;HPM_P2
2023/06/08 00:00:52;;;;;;;11.73;7.18;;;18.90;99.90;;;;;;4913289;29;20041;-77
2023/06/08 00:03:18;;;;;;;9.50;7.15;;;18.80;99.90;;;;;;4876579;29;20079;-76
2023/06/08 00:05:48;;;;;;;11.82;7.13;;;18.80;99.90;;;;;;4933058;29;20083;-76
2023/06/08 00:08:14;;;;;;;11.00;7.75;;;18.80;99.90;;;;;;4883373;29;20056;-77
2023/06/08 00:10:44;;;;;;;10.60;6.95;;;18.80;99.90;;;;;;4885665;29;20127;-76
2023/06/08 00:13:10;;;;;;;11.77;7.10;;;18.80;99.90;;;;;;4933126;29;20406;-76
2023/06/08 00:15:35;;;;;;;11.07;7.75;;;18.80;99.90;;;;;;4873338;29;20044;-76
2023/06/08 00:18:02;;;;;;;12.43;7.38;;;18.80;99.90;;;;;;4931516;29;20052;-76
2023/06/08 00:20:28;;;;;;;11.98;7.10;;;18.80;99.90;;;;;;4906114;29;20072;-76
2023/06/08 00:22:56;;;;;;;10.27;6.45;;;18.70;99.90;;;;;;4895910;29;20085;-76
2023/06/08 00:25:22;;;;;;;14.57;7.10;;;18.70;99.90;;;;;;4906033;29;20040;-76
2023/06/08 00:27:47;;;;;;;13.55;7.18;;;18.70;99.90;;;;;;4914709;29;20132;-76
2023/06/08 00:30:13;;;;;;;11.10;7.13;;;18.70;99.90;;;;;;4868800;29;20055;-76
2023/06/08 00:32:40;;;;;;;12.63;6.85;;;18.60;99.90;;;;;;4927290;29;20060;-77
2023/06/08 00:35:06;;;;;;;13.98;6.93;;;18.60;99.90;;;;;;4907646;29;20055;-76
2023/06/08 00:37:32;;;;;;;16.25;6.88;;;18.60;99.90;;;;;;4892687;29;20053;-76
2023/06/08 00:39:57;;;;;;;13.18;6.95;;;18.60;99.90;;;;;;4931263;29;20049;-76
2023/06/08 00:42:23;;;;;;;15.80;7.35;;;18.60;99.90;;;;;;4896457;29;20418;-76
2023/06/08 00:44:49;;;;;;;14.68;6.38;;;18.60;99.90;;;;;;4920711;29;20052;-76
2023/06/08 00:47:15;;;;;;;11.85;6.68;;;18.60;99.90;;;;;;4914108;29;20053;-77
2023/06/08 00:49:41;;;;;;;12.05;6.32;;;18.60;99.90;;;;;;4928730;29;20080;-76
2023/06/08 00:52:07;;;;;;;13.32;7.00;;;18.60;99.90;;;;;;4928506;29;20136;-76
2023/06/08 00:54:33;;;;;;;10.00;6.18;;;18.50;99.90;;;;;;4894439;29;20089;-76
2023/06/08 00:57:00;;;;;;;14.65;6.97;;;18.50;99.90;;;;;;4928517;29;20100;-76
2023/06/08 00:59:29;;;;;;;9.85;6.82;;;18.50;99.90;;;;;;4919080;29;20036;-76
2023/06/08 01:01:57;;;;;;;13.05;6.13;;;18.50;99.90;;;;;;4912854;29;20139;-76
2023/06/08 01:04:25;;;;;;;12.15;6.78;;;18.50;99.90;;;;;;4919696;29;20061;-76
2023/06/08 01:06:58;;;;;;;10.02;5.55;;;18.50;99.90;;;;;;4883174;29;20147;-76
2023/06/08 01:09:29;;;;;;;9.32;5.75;;;18.40;99.90;;;;;;4931820;29;20047;-76
2023/06/08 01:11:59;;;;;;;11.25;6.18;;;18.40;99.90;;;;;;4900646;29;20183;-77
2023/06/08 01:14:30;;;;;;;8.52;5.63;;;18.40;99.90;;;;;;4893798;29;20052;-77
2023/06/08 01:16:57;;;;;;;14.63;6.45;;;18.30;99.90;;;;;;4904596;29;20105;-76
2023/06/08 01:19:47;;;;;;;9.05;5.55;;;18.30;99.90;;;;;;4891995;29;20080;-77
2023/06/08 01:22:35;;;;;;;11.95;5.82;;;18.30;99.90;;;;;;4900316;29;20040;-75
2023/06/08 01:25:00;;;;;;;8.40;5.22;;;18.20;99.90;;;;;;4924116;29;20101;-75
2023/06/08 01:27:28;;;;;;;12.18;5.60;;;18.20;99.90;;;;;;4925759;29;20414;-76
2023/06/08 01:29:54;;;;;;;12.60;6.90;;;18.30;99.90;;;;;;4885125;29;20049;-76
2023/06/08 01:32:20;;;;;;;14.40;5.55;;;18.20;99.90;;;;;;4884764;29;20041;-76
2023/06/08 01:34:46;;;;;;;11.43;5.80;;;18.10;99.90;;;;;;4908585;29;20037;-76
2023/06/08 01:37:39;;;;;;;8.77;5.32;;;18.10;99.90;;;;;;4915053;29;20048;-76
2023/06/08 01:40:10;;;;;;;9.80;4.88;;;18.20;99.90;;;;;;4910833;29;20740;-76
2023/06/08 01:42:36;;;;;;;10.43;5.10;;;18.20;99.90;;;;;;4899036;29;20044;-76
2023/06/08 01:45:09;;;;;;;8.70;5.68;;;18.20;99.90;;;;;;4938875;29;20366;-76
2023/06/08 01:47:45;;;;;;;10.25;5.30;;;18.20;99.90;;;;;;4899152;29;20128;-76
2023/06/08 01:50:11;;;;;;;10.68;5.10;;;18.20;99.90;;;;;;4930634;29;20068;-76
2023/06/08 01:52:44;;;;;;;7.90;4.93;;;18.20;99.90;;;;;;4928373;29;20170;-76
2023/06/08 01:55:19;;;;;;;8.85;5.05;;;18.20;99.90;;;;;;4919921;29;20060;-77
2023/06/08 01:57:45;;;;;;;10.05;5.20;;;18.20;99.90;;;;;;4927985;29;20512;-76
2023/06/08 02:00:12;;;;;;;14.32;5.47;;;18.20;99.70;;;;;;4915611;29;20056;-76
2023/06/08 02:02:38;;;;;;;9.25;4.55;;;18.20;99.80;;;;;;4871533;29;20063;-76
2023/06/08 02:05:08;;;;;;;9.05;4.82;;;18.20;99.80;;;;;;4925036;29;20048;-76
2023/06/08 02:07:33;;;;;;;8.80;4.20;;;18.20;99.80;;;;;;4888140;29;20056;-76
2023/06/08 02:09:59;;;;;;;11.75;5.10;;;18.20;99.80;;;;;;4905346;29;20044;-76
2023/06/08 02:12:25;;;;;;;11.43;5.35;;;18.20;99.80;;;;;;4879314;29;20051;-76
2023/06/08 02:14:51;;;;;;;11.45;5.40;;;18.10;99.80;;;;;;4924248;29;20071;-76
2023/06/08 02:17:25;;;;;;;9.93;4.88;;;18.10;99.90;;;;;;4894500;29;20049;-76
2023/06/08 02:19:51;;;;;;;11.30;5.43;;;18.10;99.90;;;;;;4912590;29;20823;-76
2023/06/08 02:22:17;;;;;;;11.60;5.03;;;18.10;99.90;;;;;;4881012;29;20048;-76
2023/06/08 02:24:44;;;;;;;10.95;5.15;;;18.10;99.90;;;;;;4926162;29;20049;-76
2023/06/08 02:27:09;;;;;;;8.75;5.07;;;18.10;99.90;;;;;;4928875;29;20500;-75
2023/06/08 02:29:35;;;;;;;11.18;4.72;;;18.10;99.90;;;;;;4899574;29;20048;-76
2023/06/08 02:32:02;;;;;;;12.15;5.25;;;18.10;99.90;;;;;;4930830;29;20788;-76
2023/06/08 02:34:28;;;;;;;8.68;4.82;;;18.10;99.90;;;;;;4913129;29;20041;-76
2023/06/08 02:36:53;;;;;;;8.07;4.85;;;18.10;99.90;;;;;;4926709;29;20212;-76
2023/06/08 02:39:19;;;;;;;11.02;4.72;;;18.10;99.90;;;;;;4870644;29;20532;-76
2023/06/08 02:41:46;;;;;;;9.95;5.28;;;18.00;99.90;;;;;;4889633;29;20462;-76
2023/06/08 02:44:12;;;;;;;13.75;5.63;;;18.00;99.90;;;;;;4898729;29;20180;-76
2023/06/08 02:46:38;;;;;;;10.07;5.28;;;18.00;99.90;;;;;;4901523;29;20450;-76
2023/06/08 02:49:04;;;;;;;12.20;5.80;;;18.00;99.90;;;;;;4887300;29;20096;-76
2023/06/08 02:51:30;;;;;;;11.57;5.20;;;18.00;99.90;;;;;;4929112;29;20060;-76
2023/06/08 02:53:56;;;;;;;8.95;5.43;;;18.00;99.90;;;;;;4898290;29;20045;-76
2023/06/08 02:56:24;;;;;;;9.98;5.50;;;18.00;99.90;;;;;;4907161;29;20055;-76
2023/06/08 02:58:50;;;;;;;8.27;5.22;;;18.00;99.90;;;;;;4916447;29;20063;-76
2023/06/08 03:01:15;;;;;;;9.40;4.85;;;18.00;99.90;;;;;;4918225;29;20044;-76
2023/06/08 03:03:42;;;;;;;8.95;5.18;;;18.00;99.90;;;;;;4907030;29;20056;-76
2023/06/08 03:06:09;;;;;;;8.63;5.03;;;18.00;99.90;;;;;;4937807;29;20052;-76
2023/06/08 03:08:41;;;;;;;10.13;5.40;;;17.90;99.90;;;;;;4924101;29;20063;-76
2023/06/08 03:11:07;;;;;;;8.73;5.18;;;17.70;99.90;;;;;;4903999;29;20075;-76
2023/06/08 03:13:33;;;;;;;9.45;5.63;;;17.70;99.90;;;;;;4898777;29;20078;-76
2023/06/08 03:15:59;;;;;;;8.35;4.70;;;17.80;99.90;;;;;;4937642;29;20052;-76
2023/06/08 03:18:26;;;;;;;11.23;5.43;;;17.80;99.90;;;;;;4940329;29;20421;-76
2023/06/08 03:20:51;;;;;;;11.10;5.47;;;17.60;99.90;;;;;;4935017;29;20059;-76
2023/06/08 03:23:20;;;;;;;9.90;5.85;;;17.60;99.90;;;;;;4916610;29;20048;-76
2023/06/08 03:25:50;;;;;;;10.48;5.93;;;17.70;99.90;;;;;;4932865;29;20055;-76
2023/06/08 03:28:17;;;;;;;9.75;6.05;;;17.70;99.90;;;;;;4890506;29;20078;-76
2023/06/08 03:30:42;;;;;;;9.23;5.80;;;17.70;99.90;;;;;;4901542;29;20052;-76
2023/06/08 03:33:10;;;;;;;12.70;6.30;;;17.70;99.90;;;;;;4930288;29;20513;-76
2023/06/08 03:35:36;;;;;;;11.05;5.82;;;17.70;99.90;;;;;;4925135;29;20111;-75
2023/06/08 03:38:02;;;;;;;10.00;6.05;;;17.70;99.90;;;;;;4921903;29;20052;-75
2023/06/08 03:40:27;;;;;;;12.52;5.85;;;17.70;99.90;;;;;;4925040;29;20964;-75
2023/06/08 03:42:55;;;;;;;10.10;6.07;;;17.70;99.90;;;;;;4904689;29;20786;-75
2023/06/08 03:45:21;;;;;;;11.00;5.57;;;17.70;99.90;;;;;;4931048;29;20056;-75
2023/06/08 03:47:47;;;;;;;10.23;6.07;;;17.70;99.90;;;;;;4915633;29;20168;-76
2023/06/08 03:50:16;;;;;;;12.15;6.70;;;17.70;99.90;;;;;;4910189;29;20486;-76
2023/06/08 03:52:43;;;;;;;10.60;5.90;;;17.60;99.90;;;;;;4902000;29;20040;-75
2023/06/08 03:55:09;;;;;;;10.43;5.82;;;17.60;99.90;;;;;;4920261;29;20052;-76
2023/06/08 03:57:35;;;;;;;9.30;5.97;;;17.60;99.90;;;;;;4910098;29;20056;-76
2023/06/08 04:00:01;;;;;;;9.85;5.70;;;17.60;99.90;;;;;;4931966;29;20048;-76
2023/06/08 04:02:27;;;;;;;11.63;5.68;;;17.50;99.90;;;;;;4930814;29;20067;-75
2023/06/08 04:04:53;;;;;;;9.18;6.00;;;17.50;99.90;;;;;;4900908;29;20048;-76
2023/06/08 04:07:21;;;;;;;10.43;5.70;;;17.50;99.90;;;;;;4909410;29;20300;-76
2023/06/08 04:09:47;;;;;;;;;;;17.50;99.90;;;;;;4920938;29;20041;-75
2023/06/08 04:12:13;;;;;;;13.00;6.35;;;17.50;99.90;;;;;;4916939;29;19911;-75
2023/06/08 04:14:39;;;;;;;10.70;6.10;;;17.50;99.90;;;;;;4897933;29;20048;-75
2023/06/08 04:17:05;;;;;;;13.77;6.85;;;17.50;99.90;;;;;;4930618;29;20402;-75
2023/06/08 04:19:30;;;;;;;14.93;6.00;;;17.50;99.90;;;;;;4919665;29;20476;-76
2023/06/08 04:21:56;;;;;;;10.25;6.50;;;17.50;99.90;;;;;;4897965;29;20343;-76
2023/06/08 04:24:23;;;;;;;12.02;6.45;;;17.50;99.90;;;;;;4906943;29;20052;-76
2023/06/08 04:26:50;;;;;;;11.18;6.10;;;17.50;99.90;;;;;;4893006;29;20044;-76
2023/06/08 04:29:17;;;;;;;11.23;6.28;;;17.50;99.90;;;;;;4911269;29;20124;-76
2023/06/08 04:31:43;;;;;;;10.40;6.38;;;17.50;99.90;;;;;;4926036;29;20082;-76
2023/06/08 04:34:09;;;;;;;8.88;5.75;;;17.40;99.90;;;;;;4913398;29;20087;-76
2023/06/08 04:36:34;;;;;;;13.15;6.05;;;17.40;99.90;;;;;;4926028;29;20044;-76
2023/06/08 04:39:01;;;;;;;10.43;5.93;;;17.50;99.90;;;;;;4906575;29;20105;-75
2023/06/08 04:41:28;;;;;;;10.32;6.43;;;17.50;99.90;;;;;;4895476;29;20055;-75
2023/06/08 04:43:54;;;;;;;10.43;6.80;;;17.50;99.90;;;;;;4905623;29;20048;-75
2023/06/08 04:46:25;;;;;;;11.77;6.95;;;17.50;99.90;;;;;;4928191;29;20249;-75
2023/06/08 04:48:51;;;;;;;10.73;6.93;;;17.50;99.90;;;;;;4920006;29;20083;-76
2023/06/08 04:51:17;;;;;;;14.60;6.97;;;17.40;99.90;;;;;;4927594;29;20402;-75
2023/06/08 04:53:43;;;;;;;12.15;6.50;;;17.40;99.90;;;;;;4918722;29;20088;-79
2023/06/08 04:56:18;;;;;;;12.05;6.88;;;17.40;99.90;;;;;;4931945;29;20147;-79
2023/06/08 04:58:45;;;;;;;14.00;6.80;;;17.40;99.90;;;;;;4912649;29;20040;-79
2023/06/08 05:01:11;;;;;;;14.70;7.43;;;17.40;99.90;;;;;;4930758;29;20377;-79
2023/06/08 05:03:37;;;;;;;11.10;6.47;;;17.30;99.90;;;;;;4928396;29;20049;-80
2023/06/08 05:06:03;;;;;;;12.15;6.70;;;17.30;99.90;;;;;;4875796;29;20052;-80
2023/06/08 05:08:28;;;;;;;12.98;6.35;;;17.30;99.90;;;;;;4916422;29;20088;-80
2023/06/08 05:10:54;;;;;;;12.77;6.65;;;17.30;99.90;;;;;;4915707;29;20105;-80
2023/06/08 05:13:20;;;;;;;14.60;6.88;;;17.30;99.90;;;;;;4931487;29;20049;-79
2023/06/08 05:15:45;;;;;;;12.52;6.95;;;17.30;99.90;;;;;;4889570;29;20088;-79
2023/06/08 05:18:11;;;;;;;13.85;7.05;;;17.30;99.90;;;;;;4900317;29;20052;-79
2023/06/08 05:20:37;;;;;;;11.15;7.00;;;17.30;99.90;;;;;;4928567;29;20080;-79
2023/06/08 05:23:04;;;;;;;9.55;7.10;;;17.30;99.90;;;;;;4873653;29;20065;-80
2023/06/08 05:25:30;;;;;;;14.93;7.55;;;17.30;99.90;;;;;;4894420;29;20334;-80
2023/06/08 05:27:56;;;;;;;12.80;6.75;;;17.30;99.90;;;;;;4916045;29;20045;-79
2023/06/08 05:30:21;;;;;;;11.65;6.93;;;17.30;99.90;;;;;;4916554;29;20048;-79
2023/06/08 05:32:47;;;;;;;12.20;6.90;;;17.30;99.90;;;;;;4906925;29;20640;-79
2023/06/08 05:35:13;;;;;;;13.63;8.00;;;17.40;99.90;;;;;;4927962;29;20056;-80
2023/06/08 05:37:39;;;;;;;12.82;6.72;;;17.30;99.90;;;;;;4914401;29;20059;-79
2023/06/08 05:40:05;;;;;;;15.73;7.72;;;17.40;99.90;;;;;;4918699;29;20045;-80
2023/06/08 05:42:31;;;;;;;14.32;7.45;;;17.40;99.90;;;;;;4925276;29;20568;-80
2023/06/08 05:44:57;;;;;;;17.85;8.07;;;17.50;99.90;;;;;;4927290;29;20097;-79
2023/06/08 05:47:22;;;;;;;12.82;7.57;;;17.50;99.90;;;;;;4871295;29;20124;-79
2023/06/08 05:49:48;;;;;;;17.48;8.63;;;17.50;99.90;;;;;;4880058;29;20120;-80
2023/06/08 05:52:14;;;;;;;16.75;8.00;;;17.50;99.90;;;;;;4918813;29;20036;-80
2023/06/08 05:54:40;;;;;;;12.15;7.80;;;17.50;99.90;;;;;;4927192;29;20098;-80
2023/06/08 05:57:06;;;;;;;13.23;8.60;;;17.50;99.90;;;;;;4915188;29;20044;-80
2023/06/08 05:59:32;;;;;;;13.65;8.50;;;17.50;99.90;;;;;;4908979;29;20058;-80
2023/06/08 06:01:57;;;;;;;14.43;8.15;;;17.50;99.90;;;;;;4915550;29;20040;-79
2023/06/08 06:04:23;;;;;;;12.32;7.80;;;17.60;99.90;;;;;;4901467;29;20041;-80
2023/06/08 06:06:49;;;;;;;15.43;8.20;;;17.60;99.90;;;;;;4917059;29;20052;-80
2023/06/08 06:09:15;;;;;;;17.38;8.60;;;17.60;99.90;;;;;;4881269;29;20067;-80
2023/06/08 06:11:41;;;;;;;15.77;8.68;;;17.60;99.90;;;;;;4901864;29;20107;-79
2023/06/08 06:14:08;;;;;;;12.13;7.70;;;17.70;99.90;;;;;;4931607;29;20053;-80
2023/06/08 06:16:33;;;;;;;12.85;7.85;;;17.70;99.90;;;;;;4930069;29;20045;-80
2023/06/08 06:18:59;;;;;;;17.67;8.65;;;17.70;99.90;;;;;;4904049;29;20060;-80
2023/06/08 06:21:25;;;;;;;17.23;8.13;;;17.80;99.90;;;;;;4914993;29;20722;-80
2023/06/08 06:23:52;;;;;;;11.73;7.68;;;17.80;99.90;;;;;;4915348;29;20052;-80
2023/06/08 06:26:18;;;;;;;17.30;7.80;;;17.80;99.90;;;;;;4906196;29;20056;-80
2023/06/08 06:28:43;;;;;;;16.42;8.05;;;17.80;99.90;;;;;;4892805;29;20462;-80
2023/06/08 06:31:10;;;;;;;14.88;7.93;;;17.90;99.90;;;;;;4889596;29;20516;-80
2023/06/08 06:33:38;;;;;;;13.50;8.50;;;17.90;99.90;;;;;;4871195;29;20045;-80
2023/06/08 06:36:05;;;;;;;14.35;7.75;;;17.90;99.90;;;;;;4936608;29;20060;-80
2023/06/08 06:38:31;;;;;;;16.10;7.75;;;18.00;99.90;;;;;;4902252;29;20055;-80
2023/06/08 06:40:59;;;;;;;12.93;8.05;;;18.00;99.90;;;;;;4885143;29;20052;-80
2023/06/08 06:43:25;;;;;;;13.25;7.80;;;18.10;99.90;;;;;;4891084;29;20055;-80
2023/06/08 06:45:51;;;;;;;11.27;7.47;;;18.20;99.90;;;;;;4915043;29;20052;-81
2023/06/08 06:48:22;;;;;;;15.20;7.88;;;18.20;99.90;;;;;;4892386;29;20497;-80
2023/06/08 06:50:48;;;;;;;16.65;8.05;;;18.30;99.90;;;;;;4909151;29;20036;-81
2023/06/08 06:53:14;;;;;;;15.10;8.07;;;18.30;99.90;;;;;;4912053;29;20045;-81
2023/06/08 06:55:40;;;;;;;13.55;7.35;;;18.30;99.90;;;;;;4919834;29;20120;-81
2023/06/08 06:58:06;;;;;;;12.18;7.53;;;18.30;99.90;;;;;;4931636;29;20084;-80
2023/06/08 07:00:37;;;;;;;13.85;8.02;;;18.40;99.90;;;;;;4915447;29;20080;-80
2023/06/08 07:03:06;;;;;;;9.43;7.10;;;18.40;99.90;;;;;;4877200;29;20135;-81
2023/06/08 07:05:36;;;;;;;16.83;7.45;;;18.50;99.90;;;;;;4893922;29;20056;-80
2023/06/08 07:08:02;;;;;;;11.98;7.40;;;18.60;99.90;;;;;;4884498;29;20053;-80
2023/06/08 07:10:29;;;;;;;11.23;7.43;;;18.60;99.90;;;;;;4926640;29;20052;-81
2023/06/08 07:12:56;;;;;;;12.25;7.43;;;18.70;99.90;;;;;;4914695;29;20127;-81
2023/06/08 07:15:22;;;;;;;11.82;7.38;;;18.70;99.90;;;;;;4884849;29;20059;-80
2023/06/08 07:17:48;;;;;;;11.68;7.32;;;18.80;99.90;;;;;;4895085;29;20048;-81
2023/06/08 07:20:14;;;;;;;11.93;7.55;;;18.80;99.90;;;;;;4894058;29;20052;-80
2023/06/08 07:22:40;;;;;;;12.02;7.55;;;18.80;99.90;;;;;;4930160;29;20048;-80
2023/06/08 07:25:06;;;;;;;17.23;8.55;;;18.90;99.90;;;;;;4876481;29;20188;-80
2023/06/08 07:27:32;;;;;;;15.73;8.20;;;18.90;99.90;;;;;;4883377;29;20049;-80
2023/06/08 07:29:58;;;;;;;11.02;7.63;;;18.90;99.90;;;;;;4929158;29;20037;-80
2023/06/08 07:32:24;;;;;;;11.15;8.32;;;19.00;99.90;;;;;;4934640;29;20045;-80
2023/06/08 07:34:52;;;;;;;10.18;7.60;;;19.00;99.90;;;;;;4889470;29;20055;-81
2023/06/08 07:37:18;;;;;;;12.13;7.65;;;19.10;99.90;;;;;;4915834;29;20114;-81
2023/06/08 07:39:43;;;;;;;12.57;8.30;;;19.20;99.90;;;;;;4888114;29;20549;-81
2023/06/08 07:42:09;;;;;;;16.38;8.52;;;19.20;99.90;;;;;;4891215;29;20052;-80
2023/06/08 07:44:35;;;;;;;13.68;8.00;;;19.20;99.90;;;;;;4897487;29;20128;-80
2023/06/08 07:47:01;;;;;;;13.95;7.88;;;19.20;99.90;;;;;;4857983;29;20076;-81
2023/06/08 07:49:31;;;;;;;10.13;7.97;;;19.30;99.90;;;;;;4908320;29;20072;-80
2023/06/08 07:51:56;;;;;;;12.18;7.80;;;19.40;99.90;;;;;;4873528;29;20036;-81
2023/06/08 07:54:23;;;;;;;14.57;7.93;;;19.40;99.90;;;;;;4869077;29;20059;-80
2023/06/08 07:56:50;;;;;;;10.25;7.55;;;19.50;99.90;;;;;;4902724;29;20060;-82
2023/06/08 07:59:16;;;;;;;12.55;8.38;;;19.50;99.90;;;;;;4914936;29;20608;-81
2023/06/08 08:01:44;;;;;;;13.02;7.30;;;19.60;99.90;;;;;;4899980;29;20458;-81
2023/06/08 08:04:11;;;;;;;14.27;8.00;;;19.70;99.90;;;;;;4930940;29;20049;-82
2023/06/08 08:06:37;;;;;;;13.05;8.18;;;19.70;99.90;;;;;;4897371;29;20537;-81
2023/06/08 08:09:03;;;;;;;11.52;7.78;;;19.90;99.90;;;;;;4915524;29;20108;-81
2023/06/08 08:11:30;;;;;;;12.63;7.95;;;20.00;99.90;;;;;;4900720;29;20076;-81
2023/06/08 08:13:56;;;;;;;14.50;8.95;;;20.00;99.90;;;;;;4911294;29;20127;-82
2023/06/08 08:16:21;;;;;;;15.35;8.10;;;20.10;99.90;;;;;;4908849;29;20132;-81
2023/06/08 08:18:47;;;;;;;13.18;7.75;;;20.20;99.90;;;;;;4913135;29;20049;-81
2023/06/08 08:21:13;;;;;;;13.18;7.50;;;20.30;99.90;;;;;;4897333;29;20063;-82
2023/06/08 08:23:39;;;;;;;11.13;7.22;;;20.30;99.90;;;;;;4927633;29;20045;-81
2023/06/08 08:26:06;;;;;;;11.57;7.47;;;20.30;99.90;;;;;;4913775;29;20044;-81
2023/06/08 08:28:33;;;;;;;10.60;7.20;;;20.40;99.90;;;;;;4918959;29;20100;-80
2023/06/08 08:30:59;;;;;;;12.13;7.60;;;20.50;99.90;;;;;;4918473;29;20045;-81
2023/06/08 08:33:26;;;;;;;11.77;7.40;;;20.50;99.90;;;;;;4919593;29;20044;-81
2023/06/08 08:35:52;;;;;;;7.83;6.70;;;20.50;99.90;;;;;;4898014;29;20052;-81
2023/06/08 08:38:18;;;;;;;11.18;7.40;;;20.60;99.90;;;;;;4913150;29;20048;-81
2023/06/08 08:40:44;;;;;;;11.93;7.07;;;20.70;99.90;;;;;;4898774;29;20040;-81
2023/06/08 08:43:12;;;;;;;10.57;6.65;;;20.80;99.90;;;;;;4928618;29;20053;-81
2023/06/08 08:45:38;;;;;;;;;;;20.80;99.90;;;;;;4911739;29;20056;-81
2023/06/08 08:48:07;;;;;;;11.60;7.72;;;20.90;99.90;;;;;;4939192;29;20595;-81
2023/06/08 08:50:36;;;;;;;12.15;7.80;;;20.90;99.90;;;;;;4924782;29;20036;-80
2023/06/08 08:53:02;;;;;;;13.65;7.18;;;21.00;99.90;;;;;;4902097;29;20525;-78
2023/06/08 08:55:28;;;;;;;10.27;7.07;;;21.10;99.90;;;;;;4908020;29;20049;-78
2023/06/08 08:57:56;;;;;;;11.48;7.78;;;21.20;99.90;;;;;;4895789;29;20049;-77
2023/06/08 09:00:22;;;;;;;;;;;21.20;99.90;;;;;;4916953;29;20108;-78
2023/06/08 09:02:50;;;;;;;12.82;7.72;;;21.30;99.90;;;;;;4931476;29;19920;-77
2023/06/08 09:05:16;;;;;;;11.93;7.47;;;21.40;99.90;;;;;;4885400;29;20488;-78
2023/06/08 09:07:42;;;;;;;12.45;6.90;;;21.40;99.80;;;;;;4895722;29;20064;-78
2023/06/08 09:10:18;;;;;;;9.20;6.68;;;21.40;99.90;;;;;;4916855;29;20045;-78
2023/06/08 09:12:48;;;;;;;9.77;6.65;;;21.60;98.70;;;;;;4933063;29;20045;-78
2023/06/08 09:15:23;;;;;;;11.77;6.53;;;21.60;99.10;;;;;;4909706;29;20112;-78
2023/06/08 09:17:51;;;;;;;9.73;6.40;;;21.80;99.70;;;;;;4908907;29;20389;-77
2023/06/08 09:20:17;;;;;;;12.35;7.15;;;21.90;98.80;;;;;;4915515;29;20052;-78
2023/06/08 09:22:44;;;;;;;9.05;6.57;;;22.00;98.90;;;;;;4882033;29;20053;-77
2023/06/08 09:25:09;;;;;;;12.85;5.43;;;22.00;98.70;;;;;;4897771;29;20059;-77
2023/06/08 09:27:37;;;;;;;9.55;6.00;;;22.00;98.50;;;;;;4926475;29;20052;-77
2023/06/08 09:30:22;;;;;;;10.63;6.10;;;22.00;98.70;;;;;;4891783;29;20072;-78
2023/06/08 09:32:48;;;;;;;10.93;6.53;;;22.00;98.30;;;;;;4873722;29;20040;-78
2023/06/08 09:35:21;;;;;;;9.63;6.20;;;22.00;97.90;;;;;;4914165;29;20454;-78
2023/06/08 09:37:49;;;;;;;8.93;7.07;;;21.90;97.80;;;;;;4928661;29;20486;-78
2023/06/08 09:40:22;;;;;;;10.45;6.60;;;22.00;97.60;;;;;;4894877;29;20086;-78
2023/06/08 09:42:53;;;;;;;9.77;6.20;;;22.00;97.90;;;;;;4906821;29;20036;-78
2023/06/08 09:45:19;;;;;;;14.13;7.05;;;22.10;98.30;;;;;;4874719;29;20045;-80
2023/06/08 09:47:45;;;;;;;13.55;7.13;;;22.20;98.20;;;;;;4917114;29;20056;-80
2023/06/08 09:50:11;;;;;;;10.57;6.47;;;22.10;97.40;;;;;;4920489;29;20053;-80
2023/06/08 09:52:37;;;;;;;9.77;7.40;;;22.10;97.60;;;;;;4904295;29;20378;-80
2023/06/08 09:55:04;;;;;;;11.10;7.13;;;22.20;97.30;;;;;;4885222;29;20059;-80
2023/06/08 09:57:36;;;;;;;13.40;6.85;;;22.20;97.00;;;;;;4918548;29;20053;-80
2023/06/08 10:00:22;;;;;;;10.68;7.10;;;22.20;97.40;;;;;;4909412;29;20676;-81
2023/06/08 10:03:09;;;;;;;13.15;7.30;;;22.10;97.00;;;;;;4919197;29;20479;-81
2023/06/08 10:05:36;;;;;;;11.13;6.53;;;22.10;96.90;;;;;;4894226;29;20045;-81
2023/06/08 10:08:02;;;;;;;13.20;6.75;;;22.10;96.90;;;;;;4928762;29;20080;-80
2023/06/08 10:10:34;;;;;;;10.15;6.60;;;22.20;96.90;;;;;;4887617;29;20048;-81
2023/06/08 10:12:59;;;;;;;11.13;6.05;;;22.30;96.90;;;;;;4915957;29;20375;-78
2023/06/08 10:15:27;;;;;;;12.85;7.13;;;22.30;96.90;;;;;;4931490;29;20044;-80
2023/06/08 10:17:54;;;;;;;12.43;7.88;;;22.50;97.00;;;;;;4891744;29;20060;-79
2023/06/08 10:20:20;;;;;;;13.82;7.80;;;22.60;97.50;;;;;;4932078;29;20077;-85
2023/06/08 10:22:46;;;;;;;12.38;7.22;;;22.60;97.20;;;;;;4917532;29;20044;-87
2023/06/08 10:25:13;;;;;;;15.70;7.80;;;22.60;97.00;;;;;;4917196;29;20063;-84
2023/06/08 10:27:46;;;;;;;13.02;7.65;;;22.70;97.10;;;;;;4884420;29;20049;-86
2023/06/08 10:30:12;;;;;;;11.60;6.75;;;22.70;96.70;;;;;;4930643;29;20055;-87
2023/06/08 10:32:42;;;;;;;13.95;7.00;;;22.80;96.40;;;;;;4924366;29;20048;-87
2023/06/08 10:35:09;;;;;;;11.93;7.55;;;22.80;96.10;;;;;;4915894;29;20048;-86
2023/06/08 10:37:36;;;;;;;16.08;7.53;;;22.80;96.10;;;;;;4889705;29;20116;-87
2023/06/08 10:40:12;;;;;;;10.48;7.13;;;22.90;96.50;;;;;;4909912;29;20063;-87
2023/06/08 10:42:59;;;;;;;10.95;6.80;;;23.00;96.50;;;;;;4915504;29;20048;-86
2023/06/08 10:45:31;;;;;;;11.77;7.60;;;23.10;96.20;;;;;;4927308;29;20049;-87
2023/06/08 10:48:07;;;;;;;10.00;7.00;;;23.10;95.80;;;;;;4908281;29;20052;-85
2023/06/08 10:50:37;;;;;;;10.88;7.00;;;23.20;95.60;;;;;;4934609;29;20939;-86
2023/06/08 10:53:04;;;;;;;11.65;6.95;;;23.20;95.40;;;;;;4922479;29;20049;-85
2023/06/08 10:55:32;;;;;;;11.50;7.50;;;23.30;95.80;;;;;;4911528;29;20072;-84
2023/06/08 10:58:19;;;;;;;12.73;6.68;;;23.60;95.70;;;;;;4924400;29;20284;-85
2023/06/08 11:00:50;;;;;;;8.60;5.82;;;23.70;95.30;;;;;;4913675;29;20112;-84
2023/06/08 11:03:20;;;;;;;10.48;6.72;;;23.80;95.80;;;;;;4947287;29;20044;-85
2023/06/08 11:05:50;;;;;;;13.57;7.18;;;23.90;95.20;;;;;;4894071;29;20470;-84
2023/06/08 11:08:25;;;;;;;9.38;6.82;;;24.00;95.80;;;;;;4909606;29;20107;-84
2023/06/08 11:10:54;;;;;;;11.07;6.57;;;24.10;96.00;;;;;;4918030;29;20552;-84
2023/06/08 11:13:20;;;;;;;11.65;7.05;;;24.20;95.70;;;;;;4917742;29;20133;-84
2023/06/08 11:15:48;;;;;;;10.38;5.95;;;24.20;95.70;;;;;;4887157;29;20091;-84
2023/06/08 11:18:18;;;;;;;9.25;5.93;;;24.40;94.70;;;;;;4887691;29;20044;-84
2023/06/08 11:20:44;;;;;;;12.30;7.38;;;24.50;94.50;;;;;;4915903;29;20055;-84
2023/06/08 11:23:19;;;;;;;12.52;6.60;;;24.60;93.70;;;;;;4918746;29;20056;-84
2023/06/08 11:26:03;;;;;;;9.38;6.70;;;24.60;93.50;;;;;;4896894;29;20049;-84
2023/06/08 11:28:28;;;;;;;12.80;7.03;;;24.70;93.90;;;;;;4912472;29;20045;-84
2023/06/08 11:31:09;;;;;;;10.75;6.65;;;24.80;93.90;;;;;;4886378;29;20044;-84
2023/06/08 11:33:35;;;;;;;8.98;6.13;;;24.80;94.00;;;;;;4926523;29;20056;-84
2023/06/08 11:36:02;;;;;;;11.65;6.65;;;24.80;94.00;;;;;;4914490;29;20041;-84
2023/06/08 11:38:28;;;;;;;8.25;5.70;;;24.80;93.60;;;;;;4886564;29;20159;-83
2023/06/08 11:40:57;;;;;;;8.77;5.60;;;25.00;92.70;;;;;;4911363;29;20587;-84
2023/06/08 11:43:23;;;;;;;9.70;6.25;;;25.00;93.10;;;;;;4901189;29;20044;-84
2023/06/08 11:45:52;;;;;;;8.15;5.68;;;25.00;92.90;;;;;;4904956;29;20382;-84
2023/06/08 11:48:25;;;;;;;8.60;5.68;;;25.00;92.50;;;;;;4916775;29;20066;-84
2023/06/08 11:50:51;;;;;;;7.90;6.00;;;25.00;92.60;;;;;;4883715;29;20045;-83
2023/06/08 11:53:22;;;;;;;7.70;5.07;;;25.00;92.40;;;;;;4922629;29;20103;-84
2023/06/08 11:55:50;;;;;;;8.10;5.60;;;25.20;91.30;;;;;;4888576;29;20063;-84
2023/06/08 11:58:19;;;;;;;8.05;5.43;;;25.20;91.70;;;;;;4937235;29;20052;-84
2023/06/08 12:00:48;;;;;;;8.48;5.88;;;25.20;91.80;;;;;;4919474;29;20059;-84
2023/06/08 12:03:21;;;;;;;10.07;6.40;;;25.20;91.40;;;;;;4904847;29;20048;-84
2023/06/08 12:05:47;;;;;;;7.30;5.43;;;25.30;87.30;;;;;;4928609;29;20418;-84
2023/06/08 12:08:16;;;;;;;8.02;5.07;;;25.30;90.40;;;;;;4920535;29;20127;-84
2023/06/08 12:10:43;;;;;;;9.27;6.05;;;25.40;90.20;;;;;;4919858;29;20076;-84
2023/06/08 12:13:16;;;;;;;8.40;5.50;;;25.30;91.00;;;;;;4936296;29;20079;-84
2023/06/08 12:15:46;;;;;;;7.68;5.93;;;25.20;84.90;;;;;;4919780;29;20489;-84
2023/06/08 12:18:16;;;;;;;9.30;5.57;;;25.20;86.10;;;;;;4913274;29;20056;-84
2023/06/08 12:20:42;;;;;;;6.47;5.10;;;25.20;89.60;;;;;;4947642;29;20052;-84
2023/06/08 12:23:08;;;;;;;7.93;5.18;;;25.20;88.80;;;;;;4951060;29;20059;-84
2023/06/08 12:25:34;;;;;;;7.10;5.10;;;25.20;87.70;;;;;;4940778;29;20044;-84
2023/06/08 12:28:00;;;;;;;7.47;4.57;;;25.20;89.70;;;;;;4944647;29;20104;-84
2023/06/08 12:30:26;;;;;;;6.80;5.10;;;25.20;85.60;;;;;;4914747;29;20522;-84
2023/06/08 12:32:55;;;;;;;11.07;5.15;;;25.20;88.30;;;;;;4935231;29;20045;-84
2023/06/08 12:35:21;;;;;;;8.52;4.38;;;25.20;85.40;;;;;;4936342;29;20100;-84
2023/06/08 12:37:50;;;;;;;6.47;4.43;;;25.20;81.90;;;;;;4886399;29;20045;-84
2023/06/08 12:40:19;;;;;;;6.60;4.60;;;25.30;81.60;;;;;;4936719;29;20076;-85
2023/06/08 12:42:51;;;;;;;5.55;4.57;;;25.50;79.80;;;;;;4903104;29;20055;-85